sensor_id;sensor_type;location;lat;lon;timestamp;pressure;altitude;pressure_sealevel;temperature;humidity
56174;BME280;42058;52.308;20.924;2023-05-11T10:18:14;101182.94;;;23.53;27.37
56174;BME280;42058;52.308;20.924;2023-05-11T10:20:41;101187.36;;;23.46;27.34
56174;BME280;42058;52.308;20.924;2023-05-11T10:23:10;101179.53;;;23.40;27.45
56174;BME280;42058;52.308;20.924;2023-05-11T10:25:38;101178.11;;;23.35;27.38
56174;BME280;42058;52.308;20.924;2023-05-11T10:28:05;101163.07;;;23.30;27.41
56174;BME280;42058;52.308;20.924;2023-05-11T10:30:32;101173.02;;;23.23;27.81
56174;BME280;42058;52.308;20.924;2023-05-11T10:33:02;101183.36;;;23.18;27.94
56174;BME280;42058;52.308;20.924;2023-05-11T10:35:31;101163.48;;;23.13;27.45
56174;BME280;42058;52.308;20.924;2023-05-11T10:38:02;101167.83;;;23.07;27.94
56174;BME280;42058;52.308;20.924;2023-05-11T10:40:40;101163.86;;;23.05;28.26
56174;BME280;42058;52.308;20.924;2023-05-11T10:43:42;101161.96;;;23.01;27.76
56174;BME280;42058;52.308;20.924;2023-05-11T10:49:21;101159.48;;;22.92;28.10
56174;BME280;42058;52.308;20.924;2023-05-11T10:54:48;101151.14;;;22.86;28.18
56174;BME280;42058;52.308;20.924;2023-05-11T10:57:26;101147.39;;;22.80;28.32
56174;BME280;42058;52.308;20.924;2023-05-11T11:02:36;101144.95;;;22.74;28.45
56174;BME280;42058;52.308;20.924;2023-05-11T11:05:04;101152.43;;;22.71;28.31
56174;BME280;42058;52.308;20.924;2023-05-11T11:07:56;101149.34;;;22.70;28.30
56174;BME280;42058;52.308;20.924;2023-05-11T11:10:37;101145.14;;;22.71;29.04
56174;BME280;42058;52.308;20.924;2023-05-11T11:13:10;101150.08;;;22.72;28.78
56174;BME280;42058;52.308;20.924;2023-05-11T11:18:23;101143.50;;;22.76;28.46
56174;BME280;42058;52.308;20.924;2023-05-11T11:20:52;101145.25;;;22.80;28.70
56174;BME280;42058;52.308;20.924;2023-05-11T11:26:07;101145.11;;;22.85;28.43
56174;BME280;42058;52.308;20.924;2023-05-11T11:31:25;101137.58;;;22.88;28.63
56174;BME280;42058;52.308;20.924;2023-05-11T11:33:53;101141.27;;;22.91;29.15
56174;BME280;42058;52.308;20.924;2023-05-11T11:42:12;101137.52;;;23.02;28.98
56174;BME280;42058;52.308;20.924;2023-05-11T11:44:40;101134.25;;;23.06;29.09
56174;BME280;42058;52.308;20.924;2023-05-11T11:47:16;101134.10;;;23.11;28.97
56174;BME280;42058;52.308;20.924;2023-05-11T11:49:47;101131.34;;;23.19;29.31
56174;BME280;42058;52.308;20.924;2023-05-11T11:54:58;101132.67;;;23.39;29.60
56174;BME280;42058;52.308;20.924;2023-05-11T12:00:07;101138.70;;;23.64;29.01
56174;BME280;42058;52.308;20.924;2023-05-11T12:02:41;101134.52;;;23.75;28.21
56174;BME280;42058;52.308;20.924;2023-05-11T12:07:46;101137.80;;;23.87;27.97
56174;BME280;42058;52.308;20.924;2023-05-11T12:10:14;101128.23;;;23.93;28.25
56174;BME280;42058;52.308;20.924;2023-05-11T12:12:50;101132.27;;;24.02;28.36
56174;BME280;42058;52.308;20.924;2023-05-11T12:15:30;101127.54;;;24.10;27.57
56174;BME280;42058;52.308;20.924;2023-05-11T12:17:59;101129.20;;;24.17;27.54
56174;BME280;42058;52.308;20.924;2023-05-11T12:20:28;101125.26;;;24.22;27.33
56174;BME280;42058;52.308;20.924;2023-05-11T12:22:54;101126.77;;;24.28;27.11
56174;BME280;42058;52.308;20.924;2023-05-11T12:25:23;101122.11;;;24.33;27.01
56174;BME280;42058;52.308;20.924;2023-05-11T12:27:52;101125.98;;;24.39;26.95
56174;BME280;42058;52.308;20.924;2023-05-11T12:30:29;101119.65;;;24.47;26.98
56174;BME280;42058;52.308;20.924;2023-05-11T12:32:56;101117.72;;;24.56;27.09
56174;BME280;42058;52.308;20.924;2023-05-11T12:35:26;101110.48;;;24.67;26.92
56174;BME280;42058;52.308;20.924;2023-05-11T12:37:54;101109.48;;;24.78;27.09
56174;BME280;42058;52.308;20.924;2023-05-11T12:40:21;101116.86;;;24.85;26.63
56174;BME280;42058;52.308;20.924;2023-05-11T12:42:53;101112.08;;;24.93;26.88
56174;BME280;42058;52.308;20.924;2023-05-11T12:45:20;101114.11;;;25.02;26.61
56174;BME280;42058;52.308;20.924;2023-05-11T12:47:48;101103.95;;;25.08;26.61
56174;BME280;42058;52.308;20.924;2023-05-11T12:50:18;101095.89;;;25.17;26.65
56174;BME280;42058;52.308;20.924;2023-05-11T12:52:45;101093.85;;;25.25;26.07
56174;BME280;42058;52.308;20.924;2023-05-11T12:55:13;101094.68;;;25.31;26.19
56174;BME280;42058;52.308;20.924;2023-05-11T12:57:42;101090.23;;;25.37;26.28
56174;BME280;42058;52.308;20.924;2023-05-11T13:00:14;101089.08;;;25.45;26.66
56174;BME280;42058;52.308;20.924;2023-05-11T13:02:52;101087.46;;;25.52;26.19
56174;BME280;42058;52.308;20.924;2023-05-11T13:05:24;101079.77;;;25.58;26.48
56174;BME280;42058;52.308;20.924;2023-05-11T13:10:24;101078.95;;;25.66;26.11
56174;BME280;42058;52.308;20.924;2023-05-11T13:12:52;101088.96;;;25.65;25.64
56174;BME280;42058;52.308;20.924;2023-05-11T13:15:20;101081.74;;;25.61;25.86
56174;BME280;42058;52.308;20.924;2023-05-11T13:17:55;101076.94;;;25.58;25.95
56174;BME280;42058;52.308;20.924;2023-05-11T13:20:31;101080.94;;;25.57;26.30
56174;BME280;42058;52.308;20.924;2023-05-11T13:23:20;101074.22;;;25.58;25.85
56174;BME280;42058;52.308;20.924;2023-05-11T13:28:22;101072.17;;;25.52;25.58
56174;BME280;42058;52.308;20.924;2023-05-11T13:30:50;101061.11;;;25.49;25.78
56174;BME280;42058;52.308;20.924;2023-05-11T13:33:17;101062.52;;;25.45;25.60
56174;BME280;42058;52.308;20.924;2023-05-11T13:35:44;101065.47;;;25.37;25.54
56174;BME280;42058;52.308;20.924;2023-05-11T13:38:11;101073.64;;;25.29;25.60
56174;BME280;42058;52.308;20.924;2023-05-11T13:40:37;101075.48;;;25.21;25.59
56174;BME280;42058;52.308;20.924;2023-05-11T13:43:04;101069.67;;;25.13;25.53
56174;BME280;42058;52.308;20.924;2023-05-11T13:45:30;101071.07;;;25.04;25.42
56174;BME280;42058;52.308;20.924;2023-05-11T13:47:57;101071.36;;;24.98;25.89
56174;BME280;42058;52.308;20.924;2023-05-11T13:50:25;101067.47;;;24.92;25.98
56174;BME280;42058;52.308;20.924;2023-05-11T13:52:52;101070.54;;;24.85;25.94
56174;BME280;42058;52.308;20.924;2023-05-11T13:55:19;101075.52;;;24.76;25.71
56174;BME280;42058;52.308;20.924;2023-05-11T13:57:46;101070.30;;;24.64;25.51
56174;BME280;42058;52.308;20.924;2023-05-11T14:00:13;101067.25;;;24.52;25.55
56174;BME280;42058;52.308;20.924;2023-05-11T14:02:40;101073.46;;;24.39;25.59
56174;BME280;42058;52.308;20.924;2023-05-11T14:05:07;101068.71;;;24.25;25.56
56174;BME280;42058;52.308;20.924;2023-05-11T14:07:35;101069.20;;;24.14;25.99
56174;BME280;42058;52.308;20.924;2023-05-11T14:10:14;101066.61;;;24.00;26.24
56174;BME280;42058;52.308;20.924;2023-05-11T14:12:40;101062.48;;;23.88;26.14
56174;BME280;42058;52.308;20.924;2023-05-11T14:15:07;101061.09;;;23.74;26.33
56174;BME280;42058;52.308;20.924;2023-05-11T14:17:34;101064.33;;;23.62;26.62
56174;BME280;42058;52.308;20.924;2023-05-11T14:20:00;101060.59;;;23.51;26.56
56174;BME280;42058;52.308;20.924;2023-05-11T14:22:27;101056.44;;;23.39;26.63
56174;BME280;42058;52.308;20.924;2023-05-11T14:24:54;101061.36;;;23.27;26.79
56174;BME280;42058;52.308;20.924;2023-05-11T14:27:21;101059.06;;;23.16;27.03
56174;BME280;42058;52.308;20.924;2023-05-11T14:29:48;101057.48;;;23.06;27.05
56174;BME280;42058;52.308;20.924;2023-05-11T14:32:17;101056.39;;;22.95;27.01
56174;BME280;42058;52.308;20.924;2023-05-11T14:34:44;101053.06;;;22.84;26.89
56174;BME280;42058;52.308;20.924;2023-05-11T14:37:10;101055.70;;;22.71;26.98
56174;BME280;42058;52.308;20.924;2023-05-11T14:39:39;101054.00;;;22.59;26.78
56174;BME280;42058;52.308;20.924;2023-05-11T14:42:06;101054.23;;;22.48;27.35
56174;BME280;42058;52.308;20.924;2023-05-11T14:44:32;101053.21;;;22.39;27.75
56174;BME280;42058;52.308;20.924;2023-05-11T14:46:59;101054.98;;;22.31;28.10
56174;BME280;42058;52.308;20.924;2023-05-11T14:49:25;101051.16;;;22.23;28.17
56174;BME280;42058;52.308;20.924;2023-05-11T14:51:52;101056.84;;;22.16;28.36
56174;BME280;42058;52.308;20.924;2023-05-11T14:54:18;101050.38;;;22.08;28.28
56174;BME280;42058;52.308;20.924;2023-05-11T14:56:45;101055.77;;;21.99;28.29
56174;BME280;42058;52.308;20.924;2023-05-11T14:59:19;101054.49;;;21.91;28.48
56174;BME280;42058;52.308;20.924;2023-05-11T15:01:49;101054.30;;;21.83;28.52
56174;BME280;42058;52.308;20.924;2023-05-11T15:04:16;101058.16;;;21.75;28.53
56174;BME280;42058;52.308;20.924;2023-05-11T15:06:42;101061.60;;;21.69;28.42
56174;BME280;42058;52.308;20.924;2023-05-11T15:09:09;101058.71;;;21.61;28.25
56174;BME280;42058;52.308;20.924;2023-05-11T15:11:35;101057.38;;;21.54;28.55
56174;BME280;42058;52.308;20.924;2023-05-11T15:14:05;101059.23;;;21.44;28.50
56174;BME280;42058;52.308;20.924;2023-05-11T15:16:37;101055.38;;;21.37;28.39
56174;BME280;42058;52.308;20.924;2023-05-11T15:19:04;101064.64;;;21.28;28.78
56174;BME280;42058;52.308;20.924;2023-05-11T15:21:31;101066.98;;;21.22;28.75
56174;BME280;42058;52.308;20.924;2023-05-11T15:23:57;101066.56;;;21.14;28.85
56174;BME280;42058;52.308;20.924;2023-05-11T15:26:24;101069.17;;;21.06;28.83
56174;BME280;42058;52.308;20.924;2023-05-11T15:28:51;101063.70;;;21.00;28.97
56174;BME280;42058;52.308;20.924;2023-05-11T15:31:17;101055.88;;;20.93;29.21
56174;BME280;42058;52.308;20.924;2023-05-11T15:33:46;101059.79;;;20.87;29.51
56174;BME280;42058;52.308;20.924;2023-05-11T15:36:13;101060.31;;;20.81;29.58
56174;BME280;42058;52.308;20.924;2023-05-11T15:38:43;101061.52;;;20.76;29.64
56174;BME280;42058;52.308;20.924;2023-05-11T15:41:10;101064.33;;;20.71;29.84
56174;BME280;42058;52.308;20.924;2023-05-11T15:43:36;101069.96;;;20.66;29.77
56174;BME280;42058;52.308;20.924;2023-05-11T15:46:03;101072.22;;;20.61;29.62
56174;BME280;42058;52.308;20.924;2023-05-11T15:48:30;101069.33;;;20.55;29.68
56174;BME280;42058;52.308;20.924;2023-05-11T15:50:58;101071.45;;;20.49;29.98
56174;BME280;42058;52.308;20.924;2023-05-11T15:53:25;101073.87;;;20.44;29.89
56174;BME280;42058;52.308;20.924;2023-05-11T15:55:55;101073.08;;;20.39;29.97
56174;BME280;42058;52.308;20.924;2023-05-11T15:58:22;101072.88;;;20.33;30.03
56174;BME280;42058;52.308;20.924;2023-05-11T16:00:48;101075.27;;;20.29;30.43
56174;BME280;42058;52.308;20.924;2023-05-11T16:03:15;101072.06;;;20.26;30.39
56174;BME280;42058;52.308;20.924;2023-05-11T16:05:42;101075.84;;;20.22;30.45
56174;BME280;42058;52.308;20.924;2023-05-11T16:08:09;101079.27;;;20.18;30.31
56174;BME280;42058;52.308;20.924;2023-05-11T16:10:35;101076.50;;;20.13;30.34
56174;BME280;42058;52.308;20.924;2023-05-11T16:13:02;101073.76;;;20.08;30.53
56174;BME280;42058;52.308;20.924;2023-05-11T16:15:28;101072.81;;;20.03;30.58
56174;BME280;42058;52.308;20.924;2023-05-11T16:17:56;101070.85;;;20.00;30.61
56174;BME280;42058;52.308;20.924;2023-05-11T16:20:23;101072.46;;;19.96;30.93
56174;BME280;42058;52.308;20.924;2023-05-11T16:22:50;101076.46;;;19.91;30.82
56174;BME280;42058;52.308;20.924;2023-05-11T16:25:16;101072.89;;;19.86;30.85
56174;BME280;42058;52.308;20.924;2023-05-11T16:27:43;101073.48;;;19.81;31.00
56174;BME280;42058;52.308;20.924;2023-05-11T16:30:09;101070.83;;;19.77;30.98
56174;BME280;42058;52.308;20.924;2023-05-11T16:32:49;101071.77;;;19.73;31.16
56174;BME280;42058;52.308;20.924;2023-05-11T16:35:16;101071.74;;;19.70;31.37
56174;BME280;42058;52.308;20.924;2023-05-11T16:37:42;101071.73;;;19.67;31.63
56174;BME280;42058;52.308;20.924;2023-05-11T16:40:11;101075.09;;;19.64;31.75
56174;BME280;42058;52.308;20.924;2023-05-11T16:42:37;101071.98;;;19.59;31.69
56174;BME280;42058;52.308;20.924;2023-05-11T16:45:04;101071.73;;;19.54;31.83
56174;BME280;42058;52.308;20.924;2023-05-11T16:47:31;101072.16;;;19.49;31.74
56174;BME280;42058;52.308;20.924;2023-05-11T16:49:57;101070.71;;;19.46;31.80
56174;BME280;42058;52.308;20.924;2023-05-11T16:52:24;101076.86;;;19.41;32.09
56174;BME280;42058;52.308;20.924;2023-05-11T16:54:50;101079.73;;;19.37;32.14
56174;BME280;42058;52.308;20.924;2023-05-11T16:57:16;101077.96;;;19.33;32.36
56174;BME280;42058;52.308;20.924;2023-05-11T16:59:43;101083.81;;;19.30;32.46
56174;BME280;42058;52.308;20.924;2023-05-11T17:02:09;101080.46;;;19.26;32.65
56174;BME280;42058;52.308;20.924;2023-05-11T17:04:36;101077.98;;;19.23;32.69
56174;BME280;42058;52.308;20.924;2023-05-11T17:07:02;101077.88;;;19.18;32.70
56174;BME280;42058;52.308;20.924;2023-05-11T17:09:28;101076.31;;;19.14;32.63
56174;BME280;42058;52.308;20.924;2023-05-11T17:11:56;101080.92;;;19.11;32.80
56174;BME280;42058;52.308;20.924;2023-05-11T17:14:22;101086.44;;;19.08;32.78
56174;BME280;42058;52.308;20.924;2023-05-11T17:16:48;101087.14;;;19.04;32.94
56174;BME280;42058;52.308;20.924;2023-05-11T17:19:15;101087.93;;;18.99;32.91
56174;BME280;42058;52.308;20.924;2023-05-11T17:21:41;101086.66;;;18.95;32.84
56174;BME280;42058;52.308;20.924;2023-05-11T17:24:08;101087.45;;;18.91;32.95
56174;BME280;42058;52.308;20.924;2023-05-11T17:26:34;101089.80;;;18.87;32.94
56174;BME280;42058;52.308;20.924;2023-05-11T17:29:15;101086.90;;;18.80;32.72
56174;BME280;42058;52.308;20.924;2023-05-11T17:31:42;101090.28;;;18.76;32.85
56174;BME280;42058;52.308;20.924;2023-05-11T17:34:08;101095.48;;;18.72;32.75
56174;BME280;42058;52.308;20.924;2023-05-11T17:36:35;101095.65;;;18.69;32.99
56174;BME280;42058;52.308;20.924;2023-05-11T17:39:02;101100.30;;;18.64;33.19
56174;BME280;42058;52.308;20.924;2023-05-11T17:41:28;101098.18;;;18.60;33.19
56174;BME280;42058;52.308;20.924;2023-05-11T17:43:55;101100.52;;;18.56;33.40
56174;BME280;42058;52.308;20.924;2023-05-11T17:46:21;101100.72;;;18.52;33.68
56174;BME280;42058;52.308;20.924;2023-05-11T17:48:48;101102.16;;;18.48;33.68
56174;BME280;42058;52.308;20.924;2023-05-11T17:51:14;101101.09;;;18.44;33.63
56174;BME280;42058;52.308;20.924;2023-05-11T17:53:41;101105.20;;;18.40;33.60
56174;BME280;42058;52.308;20.924;2023-05-11T17:56:07;101103.71;;;18.34;33.54
56174;BME280;42058;52.308;20.924;2023-05-11T17:58:36;101107.42;;;18.31;33.81
56174;BME280;42058;52.308;20.924;2023-05-11T18:01:06;101105.91;;;18.25;33.93
56174;BME280;42058;52.308;20.924;2023-05-11T18:03:34;101111.34;;;18.20;33.96
56174;BME280;42058;52.308;20.924;2023-05-11T18:06:01;101117.63;;;18.15;33.99
56174;BME280;42058;52.308;20.924;2023-05-11T18:08:27;101119.09;;;18.10;34.51
56174;BME280;42058;52.308;20.924;2023-05-11T18:10:54;101120.17;;;18.06;34.26
56174;BME280;42058;52.308;20.924;2023-05-11T18:13:21;101122.73;;;18.00;34.58
56174;BME280;42058;52.308;20.924;2023-05-11T18:15:47;101125.08;;;17.96;34.64
56174;BME280;42058;52.308;20.924;2023-05-11T18:18:14;101126.75;;;17.90;35.07
56174;BME280;42058;52.308;20.924;2023-05-11T18:20:41;101129.98;;;17.85;35.03
56174;BME280;42058;52.308;20.924;2023-05-11T18:23:11;101128.80;;;17.79;35.25
56174;BME280;42058;52.308;20.924;2023-05-11T18:25:37;101135.75;;;17.75;35.75
56174;BME280;42058;52.308;20.924;2023-05-11T18:28:04;101135.50;;;17.68;36.05
56174;BME280;42058;52.308;20.924;2023-05-11T18:30:32;101139.70;;;17.62;36.31
56174;BME280;42058;52.308;20.924;2023-05-11T18:32:59;101138.24;;;17.55;36.91
56174;BME280;42058;52.308;20.924;2023-05-11T18:35:25;101143.55;;;17.47;37.39
56174;BME280;42058;52.308;20.924;2023-05-11T18:37:51;101145.85;;;17.39;37.85
56174;BME280;42058;52.308;20.924;2023-05-11T18:40:18;101151.88;;;17.31;38.13
56174;BME280;42058;52.308;20.924;2023-05-11T18:42:45;101152.94;;;17.22;38.30
56174;BME280;42058;52.308;20.924;2023-05-11T18:45:14;101159.83;;;17.15;38.67
56174;BME280;42058;52.308;20.924;2023-05-11T18:47:43;101159.48;;;17.06;38.92
56174;BME280;42058;52.308;20.924;2023-05-11T18:50:11;101163.00;;;16.98;39.20
56174;BME280;42058;52.308;20.924;2023-05-11T18:52:37;101165.67;;;16.89;39.61
56174;BME280;42058;52.308;20.924;2023-05-11T18:55:04;101164.92;;;16.81;40.03
56174;BME280;42058;52.308;20.924;2023-05-11T18:57:31;101168.10;;;16.72;40.11
56174;BME280;42058;52.308;20.924;2023-05-11T18:59:59;101167.02;;;16.63;40.51
56174;BME280;42058;52.308;20.924;2023-05-11T19:02:25;101169.20;;;16.54;40.37
56174;BME280;42058;52.308;20.924;2023-05-11T19:04:52;101172.70;;;16.46;40.72
56174;BME280;42058;52.308;20.924;2023-05-11T19:07:18;101173.00;;;16.38;40.94
56174;BME280;42058;52.308;20.924;2023-05-11T19:09:46;101175.75;;;16.30;41.22
56174;BME280;42058;52.308;20.924;2023-05-11T19:12:12;101180.52;;;16.22;41.36
56174;BME280;42058;52.308;20.924;2023-05-11T19:14:39;101180.30;;;16.13;41.40
56174;BME280;42058;52.308;20.924;2023-05-11T19:17:05;101180.53;;;16.07;41.46
56174;BME280;42058;52.308;20.924;2023-05-11T19:19:32;101184.55;;;16.00;41.43
56174;BME280;42058;52.308;20.924;2023-05-11T19:21:59;101191.92;;;15.91;41.52
56174;BME280;42058;52.308;20.924;2023-05-11T19:24:25;101192.20;;;15.83;41.72
56174;BME280;42058;52.308;20.924;2023-05-11T19:26:52;101193.70;;;15.76;41.99
56174;BME280;42058;52.308;20.924;2023-05-11T19:29:32;101195.35;;;15.68;42.04
56174;BME280;42058;52.308;20.924;2023-05-11T19:31:59;101195.78;;;15.62;42.25
56174;BME280;42058;52.308;20.924;2023-05-11T19:34:25;101197.63;;;15.54;42.67
56174;BME280;42058;52.308;20.924;2023-05-11T19:36:51;101200.13;;;15.48;42.78
56174;BME280;42058;52.308;20.924;2023-05-11T19:39:18;101198.04;;;15.42;43.07
56174;BME280;42058;52.308;20.924;2023-05-11T19:41:44;101200.17;;;15.36;42.91
56174;BME280;42058;52.308;20.924;2023-05-11T19:44:11;101203.17;;;15.32;43.41
56174;BME280;42058;52.308;20.924;2023-05-11T19:46:37;101205.15;;;15.26;43.41
56174;BME280;42058;52.308;20.924;2023-05-11T19:49:11;101205.21;;;15.18;43.60
56174;BME280;42058;52.308;20.924;2023-05-11T19:51:38;101205.77;;;15.12;43.86
56174;BME280;42058;52.308;20.924;2023-05-11T19:54:05;101207.20;;;15.06;44.02
56174;BME280;42058;52.308;20.924;2023-05-11T19:56:31;101207.23;;;15.00;44.00
56174;BME280;42058;52.308;20.924;2023-05-11T19:59:00;101208.84;;;14.94;44.20
56174;BME280;42058;52.308;20.924;2023-05-11T20:01:29;101207.48;;;14.87;44.46
56174;BME280;42058;52.308;20.924;2023-05-11T20:03:56;101210.67;;;14.81;44.86
56174;BME280;42058;52.308;20.924;2023-05-11T20:06:23;101212.24;;;14.75;45.18
56174;BME280;42058;52.308;20.924;2023-05-11T20:08:50;101218.59;;;14.70;45.39
56174;BME280;42058;52.308;20.924;2023-05-11T20:11:17;101218.23;;;14.65;45.57
56174;BME280;42058;52.308;20.924;2023-05-11T20:13:44;101220.50;;;14.59;46.10
56174;BME280;42058;52.308;20.924;2023-05-11T20:16:11;101220.46;;;14.54;45.99
56174;BME280;42058;52.308;20.924;2023-05-11T20:18:38;101220.98;;;14.49;46.09
56174;BME280;42058;52.308;20.924;2023-05-11T20:21:05;101222.40;;;14.42;46.25
56174;BME280;42058;52.308;20.924;2023-05-11T20:23:32;101223.63;;;14.36;46.15
56174;BME280;42058;52.308;20.924;2023-05-11T20:25:58;101226.67;;;14.29;46.54
56174;BME280;42058;52.308;20.924;2023-05-11T20:28:25;101228.09;;;14.22;46.68
56174;BME280;42058;52.308;20.924;2023-05-11T20:30:54;101231.77;;;14.17;46.53
56174;BME280;42058;52.308;20.924;2023-05-11T20:33:21;101232.48;;;14.12;46.67
56174;BME280;42058;52.308;20.924;2023-05-11T20:35:50;101236.87;;;14.06;46.76
56174;BME280;42058;52.308;20.924;2023-05-11T20:38:19;101235.23;;;14.00;46.60
56174;BME280;42058;52.308;20.924;2023-05-11T20:40:45;101236.94;;;13.97;46.47
56174;BME280;42058;52.308;20.924;2023-05-11T20:43:12;101234.73;;;13.93;46.16
56174;BME280;42058;52.308;20.924;2023-05-11T20:45:41;101236.41;;;13.91;46.58
56174;BME280;42058;52.308;20.924;2023-05-11T20:48:08;101233.14;;;13.87;46.25
56174;BME280;42058;52.308;20.924;2023-05-11T20:50:35;101237.09;;;13.84;46.28
56174;BME280;42058;52.308;20.924;2023-05-11T20:53:01;101239.10;;;13.82;46.31
56174;BME280;42058;52.308;20.924;2023-05-11T20:55:27;101235.12;;;13.80;46.30
56174;BME280;42058;52.308;20.924;2023-05-11T20:57:54;101237.45;;;13.78;46.25
56174;BME280;42058;52.308;20.924;2023-05-11T21:00:20;101237.52;;;13.76;46.26
56174;BME280;42058;52.308;20.924;2023-05-11T21:02:47;101239.70;;;13.73;46.48
56174;BME280;42058;52.308;20.924;2023-05-11T21:05:14;101240.12;;;13.70;46.01
56174;BME280;42058;52.308;20.924;2023-05-11T21:07:40;101243.91;;;13.67;46.30
56174;BME280;42058;52.308;20.924;2023-05-11T21:10:06;101247.34;;;13.64;46.81
56174;BME280;42058;52.308;20.924;2023-05-11T21:12:35;101247.94;;;13.61;46.65
56174;BME280;42058;52.308;20.924;2023-05-11T21:15:02;101252.96;;;13.58;46.73
56174;BME280;42058;52.308;20.924;2023-05-11T21:17:28;101257.45;;;13.55;47.02
56174;BME280;42058;52.308;20.924;2023-05-11T21:19:54;101260.86;;;13.52;46.94
56174;BME280;42058;52.308;20.924;2023-05-11T21:22:21;101259.71;;;13.49;46.74
56174;BME280;42058;52.308;20.924;2023-05-11T21:24:47;101267.01;;;13.47;46.64
56174;BME280;42058;52.308;20.924;2023-05-11T21:27:14;101268.30;;;13.44;46.53
56174;BME280;42058;52.308;20.924;2023-05-11T21:29:40;101269.39;;;13.43;46.57
56174;BME280;42058;52.308;20.924;2023-05-11T21:32:07;101270.15;;;13.41;46.60
56174;BME280;42058;52.308;20.924;2023-05-11T21:34:33;101272.64;;;13.39;46.52
56174;BME280;42058;52.308;20.924;2023-05-11T21:36:59;101273.94;;;13.37;46.67
56174;BME280;42058;52.308;20.924;2023-05-11T21:39:26;101276.11;;;13.35;46.67
56174;BME280;42058;52.308;20.924;2023-05-11T21:41:52;101277.73;;;13.33;46.69
56174;BME280;42058;52.308;20.924;2023-05-11T21:44:19;101277.43;;;13.31;46.61
56174;BME280;42058;52.308;20.924;2023-05-11T21:46:45;101280.23;;;13.30;46.47
56174;BME280;42058;52.308;20.924;2023-05-11T21:49:11;101279.59;;;13.28;46.54
56174;BME280;42058;52.308;20.924;2023-05-11T21:51:38;101277.17;;;13.25;46.96
56174;BME280;42058;52.308;20.924;2023-05-11T21:54:05;101277.42;;;13.22;47.21
56174;BME280;42058;52.308;20.924;2023-05-11T21:56:31;101279.77;;;13.20;47.35
56174;BME280;42058;52.308;20.924;2023-05-11T21:58:57;101285.11;;;13.18;47.52
56174;BME280;42058;52.308;20.924;2023-05-11T22:01:24;101286.40;;;13.15;47.67
56174;BME280;42058;52.308;20.924;2023-05-11T22:03:50;101289.27;;;13.13;47.59
56174;BME280;42058;52.308;20.924;2023-05-11T22:06:17;101287.88;;;13.12;47.33
56174;BME280;42058;52.308;20.924;2023-05-11T22:08:43;101287.24;;;13.09;47.77
56174;BME280;42058;52.308;20.924;2023-05-11T22:11:09;101293.27;;;13.07;47.61
56174;BME280;42058;52.308;20.924;2023-05-11T22:13:36;101296.15;;;13.05;47.76
56174;BME280;42058;52.308;20.924;2023-05-11T22:16:02;101296.89;;;13.04;47.66
56174;BME280;42058;52.308;20.924;2023-05-11T22:18:29;101298.35;;;13.01;47.72
56174;BME280;42058;52.308;20.924;2023-05-11T22:20:55;101299.67;;;12.98;47.76
56174;BME280;42058;52.308;20.924;2023-05-11T22:23:21;101300.45;;;12.95;48.04
56174;BME280;42058;52.308;20.924;2023-05-11T22:25:48;101297.52;;;12.92;47.94
56174;BME280;42058;52.308;20.924;2023-05-11T22:28:14;101302.86;;;12.88;48.08
56174;BME280;42058;52.308;20.924;2023-05-11T22:30:40;101304.20;;;12.84;48.19
56174;BME280;42058;52.308;20.924;2023-05-11T22:33:07;101307.79;;;12.81;48.31
56174;BME280;42058;52.308;20.924;2023-05-11T22:35:33;101309.07;;;12.78;48.58
56174;BME280;42058;52.308;20.924;2023-05-11T22:37:59;101314.24;;;12.75;48.66
56174;BME280;42058;52.308;20.924;2023-05-11T22:40:26;101315.91;;;12.71;48.84
56174;BME280;42058;52.308;20.924;2023-05-11T22:42:53;101318.62;;;12.68;48.83
56174;BME280;42058;52.308;20.924;2023-05-11T22:45:19;101318.34;;;12.65;48.85
56174;BME280;42058;52.308;20.924;2023-05-11T22:47:46;101315.98;;;12.61;48.95
56174;BME280;42058;52.308;20.924;2023-05-11T22:50:12;101316.74;;;12.57;49.10
56174;BME280;42058;52.308;20.924;2023-05-11T22:52:39;101319.81;;;12.53;49.17
56174;BME280;42058;52.308;20.924;2023-05-11T22:55:05;101319.02;;;12.49;49.42
56174;BME280;42058;52.308;20.924;2023-05-11T22:57:32;101316.97;;;12.45;49.19
56174;BME280;42058;52.308;20.924;2023-05-11T22:59:58;101320.55;;;12.43;49.51
56174;BME280;42058;52.308;20.924;2023-05-11T23:02:25;101322.20;;;12.38;49.81
56174;BME280;42058;52.308;20.924;2023-05-11T23:04:51;101322.13;;;12.34;49.78
56174;BME280;42058;52.308;20.924;2023-05-11T23:07:18;101323.63;;;12.29;49.96
56174;BME280;42058;52.308;20.924;2023-05-11T23:09:45;101318.80;;;12.24;49.95
56174;BME280;42058;52.308;20.924;2023-05-11T23:12:11;101319.58;;;12.20;49.96
56174;BME280;42058;52.308;20.924;2023-05-11T23:14:38;101318.61;;;12.16;50.27
56174;BME280;42058;52.308;20.924;2023-05-11T23:17:04;101318.85;;;12.12;50.30
56174;BME280;42058;52.308;20.924;2023-05-11T23:19:31;101321.20;;;12.08;50.51
56174;BME280;42058;52.308;20.924;2023-05-11T23:21:57;101317.77;;;12.04;50.77
56174;BME280;42058;52.308;20.924;2023-05-11T23:24:24;101318.02;;;12.00;50.97
56174;BME280;42058;52.308;20.924;2023-05-11T23:26:50;101317.95;;;11.94;50.87
56174;BME280;42058;52.308;20.924;2023-05-11T23:29:17;101316.77;;;11.90;51.06
56174;BME280;42058;52.308;20.924;2023-05-11T23:31:43;101316.13;;;11.86;51.24
56174;BME280;42058;52.308;20.924;2023-05-11T23:34:10;101317.42;;;11.82;51.27
56174;BME280;42058;52.308;20.924;2023-05-11T23:36:36;101316.61;;;11.78;51.42